Time;durP1;ratioP1;P1;durP2;ratioP2;P2;SDS_P1;SDS_P2;PMS_P1;PMS_P2;Temp;Humidity;BMP_temperature;BMP_pressure;BME280_temperature;BME280_humidity;BME280_pressure;Samples;Min_cycle;Max_cycle;Signal;HPM_P1;HPM_P2
2022/10/16 00:01:58;;;;;;;3.28;2.00;;;15.70;44.50;;;;;;7388712;19;20035;-70
2022/10/16 00:04:28;;;;;;;4.28;2.00;;;15.70;44.90;;;;;;7388747;19;20014;-69
2022/10/16 00:06:58;;;;;;;3.17;2.33;;;15.70;45.40;;;;;;7386015;19;20014;-69
2022/10/16 00:09:27;;;;;;;3.03;2.10;;;15.70;45.60;;;;;;7386140;19;20021;-69
2022/10/16 00:11:57;;;;;;;3.17;1.88;;;15.70;45.30;;;;;;7388338;19;20029;-69
2022/10/16 00:14:29;;;;;;;8.68;2.30;;;15.70;44.80;;;;;;7388650;19;20032;-69
2022/10/16 00:16:59;;;;;;;7.75;2.08;;;15.70;44.90;;;;;;7386514;19;20022;-69
2022/10/16 00:19:29;;;;;;;4.40;2.30;;;15.60;45.40;;;;;;7387502;19;20018;-69
2022/10/16 00:21:59;;;;;;;4.40;2.20;;;15.60;45.60;;;;;;7388137;19;20006;-69
2022/10/16 00:24:47;;;;;;;3.85;1.70;;;15.60;46.20;;;;;;7387555;19;20041;-69
2022/10/16 00:27:17;;;;;;;3.97;2.20;;;15.60;45.10;;;;;;7385936;19;20461;-69
2022/10/16 00:29:52;;;;;;;4.20;2.10;;;15.60;44.90;;;;;;7385697;19;20015;-70
2022/10/16 00:32:22;;;;;;;4.55;2.03;;;15.60;45.20;;;;;;7388576;19;20093;-70
2022/10/16 00:34:54;;;;;;;4.55;1.75;;;15.50;45.60;;;;;;7389617;19;20021;-70
2022/10/16 00:37:24;;;;;;;4.45;2.10;;;15.60;46.30;;;;;;7388402;19;20014;-70
2022/10/16 00:39:53;;;;;;;4.97;2.13;;;15.50;46.00;;;;;;7391038;19;20003;-70
2022/10/16 00:42:24;;;;;;;3.83;1.92;;;15.50;46.10;;;;;;7388176;19;20013;-70
2022/10/16 00:44:58;;;;;;;4.35;1.85;;;15.60;46.20;;;;;;7387920;19;20015;-70
2022/10/16 00:47:33;;;;;;;2.97;2.05;;;15.60;46.20;;;;;;7385390;19;20014;-69
2022/10/16 00:50:09;;;;;;;7.88;1.77;;;15.60;46.00;;;;;;7385418;19;20039;-69
2022/10/16 00:52:41;;;;;;;2.40;1.80;;;15.60;45.50;;;;;;7391278;19;20035;-69
2022/10/16 00:55:12;;;;;;;3.67;2.10;;;15.60;45.60;;;;;;7395145;19;20493;-70
2022/10/16 00:57:42;;;;;;;5.38;1.80;;;15.50;46.00;;;;;;7391389;19;20011;-70
2022/10/16 01:00:18;;;;;;;3.95;1.90;;;15.60;46.10;;;;;;7392986;19;20014;-70
2022/10/16 01:02:54;;;;;;;7.55;1.70;;;15.60;45.20;;;;;;7394781;19;20014;-69
2022/10/16 01:05:25;;;;;;;6.30;2.05;;;15.70;44.60;;;;;;7394396;19;20031;-70
2022/10/16 01:08:01;;;;;;;2.40;1.30;;;15.70;44.00;;;;;;7389934;19;20019;-69
2022/10/16 01:10:38;;;;;;;2.42;1.50;;;15.80;43.00;;;;;;7391805;19;20027;-69
2022/10/16 01:13:10;;;;;;;4.65;1.80;;;15.80;42.50;;;;;;7395173;19;20018;-69
2022/10/16 01:15:49;;;;;;;3.67;1.83;;;15.70;43.30;;;;;;7394715;19;20022;-69
2022/10/16 01:18:30;;;;;;;7.47;1.80;;;15.70;43.50;;;;;;7393236;19;20014;-69
2022/10/16 01:21:04;;;;;;;5.15;2.00;;;15.70;44.40;;;;;;7392880;19;20017;-70
2022/10/16 01:23:52;;;;;;;6.28;2.05;;;15.70;44.60;;;;;;7392852;19;20010;-70
2022/10/16 01:26:34;;;;;;;5.90;1.80;;;15.60;45.20;;;;;;7392857;19;20015;-70
2022/10/16 01:29:16;;;;;;;5.65;2.00;;;15.70;44.60;;;;;;7392957;19;20025;-70
2022/10/16 01:31:50;;;;;;;3.78;1.98;;;15.70;43.10;;;;;;7393798;19;20467;-70
2022/10/16 01:34:22;;;;;;;;;;;15.70;43.70;;;;;;7394892;19;20011;-71
2022/10/16 01:36:55;;;;;;;3.70;1.85;;;15.60;44.30;;;;;;7394480;19;19914;-70
2022/10/16 01:39:31;;;;;;;3.10;2.17;;;15.60;44.50;;;;;;7395651;19;20007;-70
2022/10/16 01:42:06;;;;;;;3.95;1.75;;;15.70;43.80;;;;;;7393095;19;20250;-70
2022/10/16 01:44:41;;;;;;;2.33;1.80;;;15.70;43.20;;;;;;7393709;19;20026;-70
2022/10/16 01:47:13;;;;;;;3.95;1.52;;;15.70;43.00;;;;;;7390503;19;20018;-70
2022/10/16 01:49:45;;;;;;;5.93;1.70;;;15.70;42.90;;;;;;7391199;19;20038;-70
2022/10/16 01:52:19;;;;;;;3.67;1.77;;;15.70;42.20;;;;;;7392438;19;20021;-70
2022/10/16 01:54:51;;;;;;;6.40;1.50;;;15.70;42.50;;;;;;7393054;19;20019;-70
2022/10/16 01:57:23;;;;;;;6.07;1.90;;;15.60;43.20;;;;;;7390632;19;20018;-71
2022/10/16 02:00:03;;;;;;;4.40;1.67;;;15.70;43.00;;;;;;7392184;19;20359;-70
2022/10/16 02:02:33;;;;;;;2.80;1.60;;;15.60;42.90;;;;;;7392345;19;20486;-69
2022/10/16 02:05:11;;;;;;;4.75;1.70;;;15.70;42.80;;;;;;7390484;19;20513;-70
2022/10/16 02:07:41;;;;;;;3.40;1.73;;;15.70;43.10;;;;;;7389452;19;20043;-70
2022/10/16 02:10:12;;;;;;;2.30;1.75;;;15.60;42.90;;;;;;7390970;19;20019;-70
2022/10/16 02:12:46;;;;;;;4.63;1.85;;;15.70;43.70;;;;;;7392057;19;20018;-70
2022/10/16 02:15:19;;;;;;;3.42;2.30;;;15.70;43.30;;;;;;7392002;19;20006;-70
2022/10/16 02:17:49;;;;;;;5.65;1.85;;;15.70;43.40;;;;;;7389706;19;20007;-70
2022/10/16 02:20:19;;;;;;;3.78;1.60;;;15.80;42.20;;;;;;7391529;19;20360;-70
2022/10/16 02:22:52;;;;;;;2.45;1.80;;;15.80;42.20;;;;;;7391829;19;20002;-70
2022/10/16 02:25:27;;;;;;;6.65;2.05;;;15.80;42.80;;;;;;7391615;19;20509;-70
2022/10/16 02:28:02;;;;;;;3.08;2.08;;;15.80;42.40;;;;;;7387947;19;20482;-70
2022/10/16 02:30:40;;;;;;;3.17;1.98;;;15.80;42.00;;;;;;7390073;19;20018;-70
2022/10/16 02:33:14;;;;;;;3.03;1.80;;;15.80;42.20;;;;;;7391726;19;20019;-70
2022/10/16 02:35:45;;;;;;;5.85;1.83;;;15.80;41.90;;;;;;7394264;19;20470;-70
2022/10/16 02:38:16;;;;;;;3.10;2.10;;;15.80;42.20;;;;;;7394407;19;20042;-70
2022/10/16 02:40:46;;;;;;;5.30;2.00;;;15.70;42.50;;;;;;7394461;19;20597;-70
2022/10/16 02:43:16;;;;;;;5.13;1.98;;;15.70;42.40;;;;;;7391615;19;20014;-70
2022/10/16 02:45:48;;;;;;;4.57;2.00;;;15.80;42.00;;;;;;7390866;19;20482;-70
2022/10/16 02:48:18;;;;;;;3.60;2.00;;;15.80;42.10;;;;;;7389953;19;20019;-70
2022/10/16 02:50:48;;;;;;;5.03;1.92;;;15.70;42.00;;;;;;7388700;19;20010;-70
2022/10/16 02:53:18;;;;;;;7.30;1.85;;;15.70;42.40;;;;;;7390913;19;20030;-70
2022/10/16 02:55:47;;;;;;;3.45;1.77;;;15.70;42.00;;;;;;7390987;19;20011;-70
2022/10/16 02:58:17;;;;;;;2.65;1.65;;;15.70;42.60;;;;;;7390331;19;20019;-69
2022/10/16 03:00:50;;;;;;;2.58;1.70;;;15.70;42.40;;;;;;7390035;19;20051;-70
2022/10/16 03:03:19;;;;;;;4.60;1.90;;;15.70;42.80;;;;;;7390360;19;20019;-70
2022/10/16 03:05:49;;;;;;;2.10;1.50;;;15.70;43.80;;;;;;7389870;19;20010;-69
2022/10/16 03:08:23;;;;;;;4.72;1.92;;;15.60;44.20;;;;;;7387903;19;20098;-69
2022/10/16 03:10:53;;;;;;;4.57;1.92;;;15.60;44.60;;;;;;7389303;19;20010;-69
2022/10/16 03:13:23;;;;;;;4.10;2.20;;;15.60;45.10;;;;;;7389979;19;20443;-69
2022/10/16 03:15:55;;;;;;;3.20;1.65;;;15.50;45.60;;;;;;7390079;19;20011;-69
2022/10/16 03:18:25;;;;;;;5.38;1.90;;;15.50;46.00;;;;;;7389105;19;20822;-69
2022/10/16 03:20:55;;;;;;;4.28;1.90;;;15.50;46.20;;;;;;7389212;19;20006;-69
2022/10/16 03:23:24;;;;;;;4.15;2.08;;;15.40;46.60;;;;;;7389864;19;20031;-69
2022/10/16 03:25:54;;;;;;;5.88;1.95;;;15.40;48.00;;;;;;7388070;19;20078;-70
2022/10/16 03:28:24;;;;;;;4.00;2.33;;;15.40;47.30;;;;;;7387051;19;20038;-70
2022/10/16 03:30:56;;;;;;;9.40;2.17;;;15.40;47.40;;;;;;7388237;19;20010;-70
2022/10/16 03:33:26;;;;;;;7.35;2.00;;;15.40;47.70;;;;;;7389432;19;20014;-70
2022/10/16 03:35:57;;;;;;;4.57;2.42;;;15.40;47.30;;;;;;7392211;19;20014;-71
2022/10/16 03:38:26;;;;;;;3.88;1.88;;;15.30;47.20;;;;;;7391789;19;20010;-70
2022/10/16 03:40:56;;;;;;;3.85;1.90;;;15.40;47.50;;;;;;7393061;19;20046;-70
2022/10/16 03:43:26;;;;;;;5.60;2.03;;;15.40;47.20;;;;;;7389263;19;20083;-69
2022/10/16 03:45:58;;;;;;;4.70;2.40;;;15.40;47.50;;;;;;7389158;19;20207;-69
2022/10/16 03:48:28;;;;;;;4.72;2.13;;;15.30;47.60;;;;;;7388292;19;20049;-70
2022/10/16 03:50:58;;;;;;;5.57;2.00;;;15.30;47.60;;;;;;7385796;19;20007;-69
2022/10/16 03:53:28;;;;;;;8.43;2.00;;;15.30;47.70;;;;;;7389107;19;20015;-69
2022/10/16 03:55:58;;;;;;;8.02;2.10;;;15.30;47.90;;;;;;7388333;19;20471;-69
2022/10/16 03:58:27;;;;;;;4.00;2.15;;;15.30;48.30;;;;;;7387092;19;20039;-69
2022/10/16 04:01:00;;;;;;;3.28;1.73;;;15.30;48.70;;;;;;7388397;19;20481;-69
2022/10/16 04:03:29;;;;;;;3.90;1.60;;;15.30;48.70;;;;;;7388345;19;20380;-69
2022/10/16 04:05:59;;;;;;;7.03;1.90;;;15.30;48.70;;;;;;7388092;19;20022;-70
2022/10/16 04:08:29;;;;;;;2.53;1.90;;;15.30;48.70;;;;;;7387856;19;20014;-70
2022/10/16 04:10:59;;;;;;;2.65;1.77;;;15.20;48.80;;;;;;7387437;19;20049;-70
2022/10/16 04:13:28;;;;;;;4.90;2.13;;;15.20;48.70;;;;;;7388445;19;20030;-70
2022/10/16 04:16:01;;;;;;;6.85;2.35;;;15.20;48.90;;;;;;7388107;19;20022;-70
2022/10/16 04:18:30;;;;;;;4.82;2.22;;;15.20;48.90;;;;;;7386236;19;20011;-70
2022/10/16 04:21:05;;;;;;;4.28;2.20;;;15.20;49.00;;;;;;7387885;19;20014;-70
2022/10/16 04:23:35;;;;;;;9.27;2.35;;;15.20;48.30;;;;;;7388442;19;20420;-70
2022/10/16 04:26:05;;;;;;;6.90;2.30;;;15.20;48.40;;;;;;7387603;19;20010;-70
2022/10/16 04:28:35;;;;;;;7.75;2.03;;;15.20;48.30;;;;;;7394058;19;20022;-70
2022/10/16 04:31:09;;;;;;;3.40;2.30;;;15.20;48.50;;;;;;7394168;19;20034;-70
2022/10/16 04:33:39;;;;;;;6.90;2.03;;;15.20;49.10;;;;;;7395771;19;20046;-71
2022/10/16 04:36:08;;;;;;;3.72;2.20;;;15.20;49.40;;;;;;7398389;19;20380;-69
2022/10/16 04:38:39;;;;;;;5.93;2.30;;;15.20;49.20;;;;;;7397890;19;20011;-69
2022/10/16 04:41:10;;;;;;;6.88;2.28;;;15.10;49.20;;;;;;7399441;19;20034;-69
2022/10/16 04:43:39;;;;;;;3.75;2.00;;;15.10;49.60;;;;;;7395158;19;20467;-69
2022/10/16 04:46:12;;;;;;;4.93;2.13;;;15.20;49.50;;;;;;7394433;19;20039;-70
2022/10/16 04:48:41;;;;;;;3.65;2.10;;;15.20;49.40;;;;;;7393707;19;20387;-69
2022/10/16 04:51:11;;;;;;;4.57;2.10;;;15.10;49.80;;;;;;7393765;19;20010;-68
2022/10/16 04:53:41;;;;;;;3.20;1.98;;;15.10;50.10;;;;;;7395000;19;20031;-69
2022/10/16 04:56:10;;;;;;;2.53;2.20;;;15.10;50.10;;;;;;7394384;19;20014;-69
2022/10/16 04:58:40;;;;;;;5.07;2.30;;;15.10;50.20;;;;;;7392463;19;20033;-70
2022/10/16 05:01:12;;;;;;;5.18;1.98;;;15.10;50.30;;;;;;7392858;19;20026;-69
2022/10/16 05:03:42;;;;;;;3.22;2.20;;;15.10;49.90;;;;;;7394298;19;20396;-70
2022/10/16 05:06:12;;;;;;;5.95;2.00;;;15.10;50.20;;;;;;7393528;19;20022;-70
2022/10/16 05:08:42;;;;;;;5.05;1.98;;;15.10;50.40;;;;;;7393494;19;20010;-70
2022/10/16 05:11:11;;;;;;;3.63;2.08;;;15.10;51.30;;;;;;7393539;19;20010;-70
2022/10/16 05:13:41;;;;;;;6.05;1.90;;;15.00;51.40;;;;;;7392287;19;20380;-70
2022/10/16 05:16:13;;;;;;;4.90;2.00;;;15.00;51.40;;;;;;7393358;19;20015;-69
2022/10/16 05:18:43;;;;;;;5.93;2.00;;;15.00;51.90;;;;;;7391517;19;20042;-70
2022/10/16 05:21:13;;;;;;;5.55;1.92;;;15.00;52.70;;;;;;7393228;19;20542;-70
2022/10/16 05:23:43;;;;;;;5.22;2.15;;;14.90;53.50;;;;;;7393883;19;20462;-68
2022/10/16 05:26:12;;;;;;;3.72;2.13;;;14.80;54.00;;;;;;7392961;19;20015;-69
2022/10/16 05:28:42;;;;;;;3.88;2.10;;;14.80;55.10;;;;;;7393180;19;20039;-70
2022/10/16 05:31:14;;;;;;;4.40;2.30;;;14.80;55.40;;;;;;7392260;19;20490;-70
2022/10/16 05:33:44;;;;;;;4.20;2.20;;;14.70;55.90;;;;;;7393442;19;20014;-70
2022/10/16 05:36:14;;;;;;;3.83;1.80;;;14.80;56.80;;;;;;7396238;19;20122;-70
2022/10/16 05:38:44;;;;;;;4.70;2.00;;;14.70;57.20;;;;;;7392590;19;20007;-70
2022/10/16 05:41:13;;;;;;;6.32;2.10;;;14.70;57.70;;;;;;7361727;19;20023;-70
2022/10/16 05:43:43;;;;;;;5.28;2.38;;;14.70;58.00;;;;;;7391732;19;20827;-70
2022/10/16 05:46:15;;;;;;;4.25;2.17;;;14.70;58.10;;;;;;7364974;19;20502;-70
2022/10/16 05:48:45;;;;;;;2.83;2.30;;;14.70;59.00;;;;;;7364462;19;20046;-70
2022/10/16 05:51:16;;;;;;;4.85;2.30;;;14.60;59.10;;;;;;7367704;19;20019;-71
2022/10/16 05:53:46;;;;;;;3.45;2.60;;;14.60;59.60;;;;;;7386308;19;20046;-70
2022/10/16 05:56:16;;;;;;;5.05;2.70;;;14.60;60.30;;;;;;7364058;19;20532;-70
2022/10/16 05:58:46;;;;;;;6.15;2.90;;;14.60;60.70;;;;;;7363955;19;20493;-70
2022/10/16 06:01:23;;;;;;;7.22;2.72;;;14.60;61.50;;;;;;7364111;19;20015;-70
2022/10/16 06:03:54;;;;;;;4.97;2.80;;;14.60;61.60;;;;;;7365097;19;20035;-70
2022/10/16 06:06:26;;;;;;;3.83;2.40;;;14.60;61.70;;;;;;7363429;19;20366;-71
2022/10/16 06:08:57;;;;;;;5.20;2.85;;;14.60;61.70;;;;;;7386291;19;20014;-71
2022/10/16 06:11:29;;;;;;;5.78;2.50;;;14.60;62.20;;;;;;7362995;19;20018;-68
2022/10/16 06:14:02;;;;;;;4.45;2.75;;;14.70;62.60;;;;;;7364694;19;20018;-69
2022/10/16 06:16:35;;;;;;;3.90;2.65;;;14.70;62.50;;;;;;7361945;19;20010;-69
2022/10/16 06:19:08;;;;;;;8.82;2.85;;;14.80;62.20;;;;;;7364247;19;20402;-69
2022/10/16 06:21:38;;;;;;;8.30;2.90;;;14.70;62.00;;;;;;7364044;19;20014;-70
2022/10/16 06:24:07;;;;;;;6.03;2.72;;;14.70;62.30;;;;;;7385770;19;20010;-70
2022/10/16 06:26:37;;;;;;;5.30;2.63;;;14.70;61.80;;;;;;7361404;19;20014;-70
2022/10/16 06:29:07;;;;;;;3.42;2.42;;;14.70;61.60;;;;;;7362990;19;20034;-70
2022/10/16 06:31:40;;;;;;;3.55;2.50;;;14.80;61.90;;;;;;7363052;19;20010;-70
2022/10/16 06:34:11;;;;;;;7.85;2.60;;;14.90;60.40;;;;;;7364317;19;20007;-69
2022/10/16 06:36:43;;;;;;;6.38;2.25;;;14.90;59.40;;;;;;7364537;19;20485;-69
2022/10/16 06:39:12;;;;;;;4.55;2.13;;;15.00;58.80;;;;;;7389438;19;20014;-69
2022/10/16 06:41:42;;;;;;;4.22;2.03;;;15.00;57.90;;;;;;7367655;19;20473;-69
2022/10/16 06:44:12;;;;;;;5.03;1.92;;;15.10;56.50;;;;;;7395979;19;20030;-69
2022/10/16 06:46:44;;;;;;;3.70;1.90;;;15.20;54.80;;;;;;7359813;19;20046;-69
2022/10/16 06:49:20;;;;;;;4.20;1.52;;;15.20;53.00;;;;;;7385019;19;20029;-69
2022/10/16 06:51:50;;;;;;;2.72;2.20;;;15.30;52.60;;;;;;7363310;19;20018;-69
2022/10/16 06:54:20;;;;;;;5.10;2.63;;;15.30;51.20;;;;;;7363233;19;20011;-69
2022/10/16 06:56:50;;;;;;;3.53;2.20;;;15.30;51.40;;;;;;7382598;19;20022;-69
2022/10/16 06:59:19;;;;;;;7.43;2.17;;;15.40;51.20;;;;;;7361570;19;20015;-69
2022/10/16 07:01:52;;;;;;;3.22;2.35;;;15.40;50.20;;;;;;7362352;19;20006;-69
2022/10/16 07:04:22;;;;;;;5.28;2.22;;;15.50;49.70;;;;;;7363423;19;20014;-69
2022/10/16 07:06:51;;;;;;;6.47;1.98;;;15.60;48.70;;;;;;7360725;19;20470;-70
2022/10/16 07:09:21;;;;;;;2.75;2.20;;;15.60;47.60;;;;;;7362122;19;20010;-70
2022/10/16 07:11:51;;;;;;;3.42;2.13;;;15.60;46.60;;;;;;7384029;19;20014;-70
2022/10/16 07:14:23;;;;;;;3.30;2.53;;;15.70;47.80;;;;;;7362368;19;20007;-69
2022/10/16 07:16:55;;;;;;;4.07;1.75;;;15.70;46.30;;;;;;7359489;19;20010;-69
2022/10/16 07:19:25;;;;;;;6.45;2.20;;;15.70;46.30;;;;;;7362042;19;20018;-69
2022/10/16 07:21:59;;;;;;;6.57;1.90;;;15.70;45.20;;;;;;7362192;19;20010;-69
2022/10/16 07:24:29;;;;;;;6.22;2.08;;;15.80;44.50;;;;;;7362649;19;20019;-69
2022/10/16 07:26:58;;;;;;;5.88;1.98;;;15.70;44.40;;;;;;7359437;19;20018;-70
2022/10/16 07:29:28;;;;;;;3.03;2.20;;;15.80;45.20;;;;;;7382603;19;20050;-69
2022/10/16 07:32:01;;;;;;;6.63;2.03;;;15.70;44.00;;;;;;7361274;19;20054;-69
2022/10/16 07:34:30;;;;;;;5.75;2.10;;;15.70;45.70;;;;;;7362706;19;20014;-70
2022/10/16 07:37:00;;;;;;;5.40;2.10;;;15.70;46.30;;;;;;7363851;19;20015;-69
2022/10/16 07:39:30;;;;;;;3.40;1.85;;;15.70;46.40;;;;;;7362673;19;20015;-70
2022/10/16 07:42:00;;;;;;;5.05;1.95;;;15.70;46.90;;;;;;7364698;19;20010;-70
2022/10/16 07:44:29;;;;;;;3.67;2.40;;;15.70;46.30;;;;;;7381999;19;20015;-70
2022/10/16 07:47:02;;;;;;;4.03;2.03;;;15.60;47.20;;;;;;7361408;19;20038;-70
2022/10/16 07:49:32;;;;;;;3.70;1.85;;;15.70;46.30;;;;;;7389254;19;20046;-70
2022/10/16 07:52:02;;;;;;;5.32;2.00;;;15.70;44.20;;;;;;7388968;19;20014;-70
2022/10/16 07:54:31;;;;;;;1.75;1.60;;;15.80;44.20;;;;;;7388140;19;20021;-69
2022/10/16 07:57:01;;;;;;;5.40;1.95;;;15.80;44.40;;;;;;7386496;19;20018;-70
2022/10/16 07:59:31;;;;;;;3.80;1.90;;;15.90;42.60;;;;;;7388323;19;20039;-70
2022/10/16 08:02:03;;;;;;;3.22;1.70;;;16.10;41.20;;;;;;7390559;19;20490;-69
2022/10/16 08:04:33;;;;;;;3.22;2.05;;;16.20;40.80;;;;;;7396230;19;20377;-70
2022/10/16 08:07:03;;;;;;;7.25;2.10;;;16.30;39.90;;;;;;7393365;19;20025;-70
2022/10/16 08:09:32;;;;;;;4.35;2.03;;;16.40;38.40;;;;;;7394918;19;20019;-70
2022/10/16 08:12:02;;;;;;;3.00;2.20;;;16.60;35.70;;;;;;7395854;19;20006;-70
2022/10/16 08:14:32;;;;;;;3.78;1.85;;;16.80;34.50;;;;;;7393534;19;20046;-70
2022/10/16 08:17:04;;;;;;;4.10;1.90;;;16.80;30.70;;;;;;7393106;19;20011;-70
2022/10/16 08:19:34;;;;;;;7.20;2.30;;;16.90;30.80;;;;;;7395398;19;20014;-70
2022/10/16 08:22:04;;;;;;;4.32;2.22;;;17.10;29.70;;;;;;7395518;19;20038;-70
2022/10/16 08:24:34;;;;;;;3.72;2.08;;;17.30;28.40;;;;;;7395491;19;20470;-72
2022/10/16 08:27:04;;;;;;;3.97;1.65;;;17.50;26.20;;;;;;7392843;19;20014;-70
2022/10/16 08:29:34;;;;;;;4.78;2.00;;;17.70;24.60;;;;;;7394591;19;20035;-70
2022/10/16 08:32:08;;;;;;;5.65;2.35;;;17.90;21.70;;;;;;7394736;19;20006;-70
2022/10/16 08:34:38;;;;;;;5.35;2.00;;;17.90;21.40;;;;;;7393883;19;20482;-70
2022/10/16 08:37:11;;;;;;;2.63;1.80;;;17.90;21.70;;;;;;7396046;19;20466;-71
2022/10/16 08:39:40;;;;;;;2.55;1.90;;;17.80;22.30;;;;;;7397610;19;20022;-70
2022/10/16 08:42:23;;;;;;;5.00;2.55;;;17.80;22.50;;;;;;7394176;19;20010;-70
2022/10/16 08:45:22;;;;;;;7.45;2.00;;;17.90;20.90;;;;;;7394993;19;20015;-69
2022/10/16 08:48:02;;;;;;;4.55;1.95;;;17.90;19.90;;;;;;7391569;19;20056;-69
2022/10/16 08:50:35;;;;;;;3.33;2.00;;;18.00;19.60;;;;;;7393247;19;20010;-69
2022/10/16 08:53:07;;;;;;;5.10;2.00;;;18.00;19.30;;;;;;7391597;19;20388;-69
2022/10/16 08:55:43;;;;;;;6.57;1.98;;;18.10;19.50;;;;;;7393625;19;20042;-70
2022/10/16 08:58:16;;;;;;;4.95;1.92;;;18.20;20.30;;;;;;7393651;19;20047;-70
2022/10/16 09:00:49;;;;;;;4.93;1.80;;;18.20;18.40;;;;;;7393109;19;20014;-69
2022/10/16 09:03:39;;;;;;;9.02;1.98;;;18.10;16.80;;;;;;7394115;19;20017;-70
2022/10/16 09:06:31;;;;;;;2.97;1.95;;;18.00;18.60;;;;;;7393124;19;20011;-69
2022/10/16 09:09:23;;;;;;;6.20;1.88;;;18.10;19.40;;;;;;7394417;19;20014;-70
2022/10/16 09:11:59;;;;;;;4.43;1.88;;;18.00;19.00;;;;;;7391196;19;20007;-70
2022/10/16 09:14:42;;;;;;;8.57;2.05;;;18.10;18.80;;;;;;7389622;19;20015;-70
2022/10/16 09:17:29;;;;;;;6.15;1.73;;;18.20;19.20;;;;;;7390446;19;20022;-70
2022/10/16 09:20:14;;;;;;;5.00;1.63;;;18.20;20.70;;;;;;7393069;19;20014;-71
2022/10/16 09:22:44;;;;;;;2.50;1.63;;;18.30;19.50;;;;;;7393915;19;20014;-72
2022/10/16 09:25:17;;;;;;;4.93;2.00;;;18.30;17.70;;;;;;7392319;19;20011;-70
2022/10/16 09:27:50;;;;;;;2.80;1.70;;;18.50;17.70;;;;;;7390414;19;20014;-71
2022/10/16 09:30:23;;;;;;;1.75;1.63;;;18.60;17.50;;;;;;7390881;19;20038;-72
2022/10/16 09:32:55;;;;;;;7.25;1.75;;;18.60;16.40;;;;;;7391556;19;20458;-71
2022/10/16 09:35:35;;;;;;;7.28;1.90;;;18.60;16.10;;;;;;7392277;19;20014;-70
2022/10/16 09:38:04;;;;;;;3.47;1.92;;;18.80;14.70;;;;;;7393497;19;20014;-70
2022/10/16 09:40:37;;;;;;;4.55;1.85;;;18.80;13.80;;;;;;7394086;19;20014;-71
2022/10/16 09:43:19;;;;;;;8.73;1.90;;;19.00;13.40;;;;;;7392439;19;20019;-69
2022/10/16 09:45:58;;;;;;;3.55;1.60;;;19.20;12.20;;;;;;7390781;19;20011;-70
2022/10/16 09:48:30;;;;;;;5.80;1.85;;;19.30;9.50;;;;;;7391664;19;20018;-70
2022/10/16 09:51:05;;;;;;;2.42;1.80;;;19.60;8.00;;;;;;7392079;19;20010;-71
2022/10/16 09:53:42;;;;;;;4.03;1.80;;;19.80;7.00;;;;;;7391682;19;20007;-70
2022/10/16 09:56:15;;;;;;;8.60;1.90;;;20.00;7.10;;;;;;7390017;19;20015;-70
2022/10/16 09:58:46;;;;;;;4.85;1.70;;;20.00;5.30;;;;;;7391308;19;20014;-70
2022/10/16 10:01:17;;;;;;;2.53;1.65;;;20.10;5.80;;;;;;7390152;19;20331;-70
2022/10/16 10:03:47;;;;;;;3.05;1.50;;;20.20;3.40;;;;;;7392007;19;20047;-70
2022/10/16 10:06:26;;;;;;;5.13;1.80;;;20.20;3.40;;;;;;7390619;19;20636;-70
2022/10/16 10:09:08;;;;;;;2.80;1.45;;;20.20;1.90;;;;;;7390421;19;20014;-70
2022/10/16 10:11:56;;;;;;;2.65;1.20;;;20.00;1.50;;;;;;7391516;19;20042;-70
2022/10/16 10:14:30;;;;;;;2.78;1.77;;;19.90;3.20;;;;;;7390633;19;20076;-69
2022/10/16 10:17:16;;;;;;;3.75;1.48;;;19.90;2.40;;;;;;7389194;19;20018;-70
2022/10/16 10:19:54;;;;;;;3.38;1.80;;;20.00;3.30;;;;;;7390826;19;20029;-70
2022/10/16 10:22:32;;;;;;;4.32;1.65;;;20.30;3.20;;;;;;7391377;19;20014;-70
2022/10/16 10:25:25;;;;;;;6.20;1.73;;;20.50;1.00;;;;;;7388380;19;20014;-70
2022/10/16 10:28:12;;;;;;;3.20;1.85;;;20.90;1.00;;;;;;7388827;19;20014;-71
2022/10/16 10:30:47;;;;;;;5.32;1.77;;;21.10;1.00;;;;;;7390771;19;20034;-70
2022/10/16 10:33:27;;;;;;;1.92;1.40;;;20.90;1.00;;;;;;7390941;19;20015;-71
2022/10/16 10:36:07;;;;;;;3.65;1.60;;;20.90;1.00;;;;;;7391699;19;20372;-70
2022/10/16 10:38:45;;;;;;;3.22;1.75;;;20.90;1.00;;;;;;7392347;19;20010;-70
2022/10/16 10:41:38;;;;;;;3.03;1.58;;;21.10;1.00;;;;;;7391321;19;20035;-69
2022/10/16 10:44:16;;;;;;;5.25;1.50;;;21.10;1.00;;;;;;7391590;19;20597;-70
2022/10/16 10:46:53;;;;;;;5.85;1.73;;;21.10;1.00;;;;;;7389316;19;20367;-70
2022/10/16 10:49:40;;;;;;;3.63;1.80;;;21.20;1.00;;;;;;7390162;19;20530;-70
2022/10/16 10:52:37;;;;;;;4.80;1.40;;;21.40;1.00;;;;;;7353093;19;20046;-70
2022/10/16 10:55:22;;;;;;;5.90;4.25;;;21.60;1.00;;;;;;7388457;19;20015;-70
2022/10/16 10:58:16;;;;;;;4.55;1.65;;;21.80;1.00;;;;;;7360777;19;20011;-71
2022/10/16 11:00:50;;;;;;;;;;;22.40;1.00;;;;;;7362913;19;20006;-71
2022/10/16 11:03:37;;;;;;;2.60;1.40;;;22.70;1.00;;;;;;7363241;19;19939;-71
2022/10/16 11:06:11;;;;;;;1.85;1.35;;;22.70;1.00;;;;;;7361236;19;20585;-70
2022/10/16 11:08:45;;;;;;;1.58;1.13;;;22.80;1.00;;;;;;7362253;19;20070;-70
2022/10/16 11:11:25;;;;;;;2.38;1.35;;;22.60;1.00;;;;;;7361670;19;20020;-70
2022/10/16 11:14:02;;;;;;;2.22;1.30;;;22.70;1.00;;;;;;7383104;19;20015;-70
2022/10/16 11:16:35;;;;;;;5.38;1.70;;;22.90;1.00;;;;;;7359254;19;20014;-70
2022/10/16 11:19:14;;;;;;;4.65;1.42;;;22.80;1.00;;;;;;7360575;19;20038;-71
2022/10/16 11:21:50;;;;;;;4.97;1.67;;;22.80;1.00;;;;;;7362048;19;20053;-71
2022/10/16 11:24:26;;;;;;;5.07;1.42;;;22.80;1.00;;;;;;7362109;19;20010;-70
2022/10/16 11:27:03;;;;;;;2.70;1.48;;;22.50;1.00;;;;;;7360520;19;20011;-71
2022/10/16 11:29:34;;;;;;;3.08;1.40;;;22.70;1.00;;;;;;7361175;19;20478;-71
2022/10/16 11:32:13;;;;;;;5.18;1.35;;;22.20;1.00;;;;;;7383066;19;20025;-71
2022/10/16 11:34:47;;;;;;;3.35;1.35;;;22.40;1.00;;;;;;7361837;19;20017;-72
2022/10/16 11:37:21;;;;;;;2.17;1.20;;;22.60;1.00;;;;;;7358221;19;20006;-72
2022/10/16 11:39:57;;;;;;;2.30;1.00;;;22.70;1.00;;;;;;7361546;19;20015;-72
2022/10/16 11:42:36;;;;;;;3.25;1.40;;;22.80;1.00;;;;;;7360795;19;20462;-71
2022/10/16 11:45:26;;;;;;;2.00;1.30;;;22.90;1.00;;;;;;7361461;19;20039;-70
2022/10/16 11:48:03;;;;;;;4.72;1.60;;;22.90;1.00;;;;;;7360032;19;20015;-70
2022/10/16 11:50:38;;;;;;;2.25;1.40;;;22.90;1.00;;;;;;7359765;19;20042;-70
2022/10/16 11:53:18;;;;;;;4.97;1.30;;;22.90;1.00;;;;;;7390457;19;20014;-71
2022/10/16 11:55:48;;;;;;;2.35;1.48;;;22.80;1.00;;;;;;7386788;19;20006;-72
2022/10/16 11:58:27;;;;;;;3.17;1.60;;;22.80;1.00;;;;;;7387631;19;20376;-71
2022/10/16 12:01:05;;;;;;;2.35;1.30;;;22.60;1.00;;;;;;7388331;19;20026;-70
2022/10/16 12:03:42;;;;;;;1.63;1.02;;;22.70;1.00;;;;;;7353137;19;20042;-70
2022/10/16 12:06:28;;;;;;;2.42;1.05;;;22.60;1.00;;;;;;7359173;19;20105;-70
2022/10/16 12:08:58;;;;;;;1.88;1.08;;;22.80;1.00;;;;;;7358542;19;20015;-71
2022/10/16 12:11:37;;;;;;;2.58;1.30;;;22.50;1.00;;;;;;7360465;19;20055;-71
2022/10/16 12:14:24;;;;;;;2.40;1.10;;;22.50;1.00;;;;;;7359454;19;20474;-71
2022/10/16 12:16:57;;;;;;;5.85;1.40;;;22.60;1.00;;;;;;7378525;19;20025;-71
2022/10/16 12:19:29;;;;;;;1.85;1.00;;;22.30;1.00;;;;;;7359395;19;20344;-71
2022/10/16 12:22:00;;;;;;;3.42;1.15;;;22.20;1.00;;;;;;7359672;19;20010;-70
2022/10/16 12:24:37;;;;;;;2.78;1.20;;;22.20;1.00;;;;;;7360685;19;20017;-70
2022/10/16 12:27:09;;;;;;;2.35;1.23;;;22.30;1.00;;;;;;7358526;19;20010;-71
2022/10/16 12:29:44;;;;;;;4.65;1.10;;;22.20;1.00;;;;;;7358681;19;20391;-70
2022/10/16 12:32:29;;;;;;;5.78;1.10;;;22.20;1.00;;;;;;7359812;19;20483;-70
2022/10/16 12:35:23;;;;;;;1.48;1.17;;;22.20;1.00;;;;;;7360545;19;20020;-70
2022/10/16 12:37:54;;;;;;;2.80;1.38;;;22.20;1.00;;;;;;7381966;19;20446;-70
2022/10/16 12:40:30;;;;;;;1.20;1.10;;;22.20;1.00;;;;;;7360202;19;20015;-71
2022/10/16 12:43:00;;;;;;;2.97;1.23;;;22.20;1.00;;;;;;7360620;19;20023;-71
2022/10/16 12:45:35;;;;;;;3.08;1.20;;;22.20;1.00;;;;;;7359120;19;20494;-71
2022/10/16 12:48:21;;;;;;;2.17;1.13;;;22.30;1.00;;;;;;7359771;19;20514;-70
2022/10/16 12:50:51;;;;;;;2.85;1.40;;;22.40;1.00;;;;;;7368723;19;20010;-71
2022/10/16 12:53:23;;;;;;;1.73;1.33;;;22.50;1.00;;;;;;7366427;19;20059;-71
2022/10/16 12:56:07;;;;;;;2.60;1.30;;;22.40;1.00;;;;;;7385522;19;20126;-71
2022/10/16 12:59:02;;;;;;;3.28;1.20;;;22.30;1.00;;;;;;7365238;19;20086;-70
2022/10/16 13:01:39;;;;;;;;;;;22.10;1.00;;;;;;7365411;19;20015;-70
2022/10/16 13:04:31;;;;;;;2.20;1.17;;;22.20;1.00;;;;;;7369031;19;19995;-71
2022/10/16 13:07:15;;;;;;;5.47;2.00;;;22.20;1.00;;;;;;7390255;19;20018;-70
2022/10/16 13:09:57;;;;;;;2.93;1.20;;;22.20;1.00;;;;;;7392942;19;20272;-71
2022/10/16 13:12:52;;;;;;;1.65;1.27;;;22.30;1.00;;;;;;7393259;19;20018;-71
2022/10/16 13:15:36;;;;;;;;;;;22.40;1.00;;;;;;7393566;19;20015;-71
2022/10/16 13:18:16;;;;;;;2.47;1.38;;;22.50;1.00;;;;;;7390733;19;19923;-71
2022/10/16 13:21:05;;;;;;;3.25;1.67;;;22.50;1.00;;;;;;7392701;19;20038;-71
2022/10/16 13:23:44;;;;;;;5.95;1.60;;;22.40;1.00;;;;;;7393317;19;20021;-70
2022/10/16 13:26:43;;;;;;;2.33;1.30;;;22.40;1.00;;;;;;7391373;19;20025;-70